Time;durP1;ratioP1;P1;durP2;ratioP2;P2;SDS_P1;SDS_P2;PMS_P1;PMS_P2;Temp;Humidity;BMP_temperature;BMP_pressure;BME280_temperature;BME280_humidity;BME280_pressure;Samples;Min_cycle;Max_cycle;Signal;HPM_P1;HPM_P2
2021/05/13 00:01:38;;;;;;;;;;;;;;;6.25;100.00;99693.34;1799297;79;20545;-69
2021/05/13 00:04:05;;;;;;;;;;;;;;;6.22;100.00;99691.47;1813501;79;20172;-70
2021/05/13 00:06:31;;;;;;;;;;;;;;;6.21;100.00;99691.11;1813529;79;20141;-71
2021/05/13 00:08:57;;;;;;;;;;;;;;;6.20;100.00;99685.41;1813503;79;20193;-70
2021/05/13 00:11:33;;;;;;;;;;;;;;;6.23;100.00;99689.11;1813529;79;20494;-71
2021/05/13 00:14:01;;;;;;;;;;;;;;;6.23;100.00;99685.08;1813565;79;20150;-71
2021/05/13 00:16:30;;;;;;;;;;;;;;;6.24;100.00;99684.09;1813376;79;20431;-70
2021/05/13 00:18:57;;;;;;;;;;;;;;;6.25;100.00;99692.48;1791462;79;20181;-71
2021/05/13 00:21:24;;;;;;;;;;;;;;;6.24;100.00;99693.50;1776750;81;20156;-71
2021/05/13 00:23:51;;;;;;;;;;;;;;;6.20;100.00;99693.47;1789804;79;20145;-71
2021/05/13 00:26:34;;;;;;;;;;;;;;;6.14;100.00;99694.05;1813579;79;20145;-71
2021/05/13 00:28:46;;;;;;;;;;;;;;;6.07;100.00;99697.36;1810228;79;20173;-71
2021/05/13 00:31:13;;;;;;;;;;;;;;;5.99;100.00;99695.91;1813550;79;20185;-71
2021/05/13 00:33:39;;;;;;;;;;;;;;;5.94;100.00;99696.81;1813264;79;20150;-72
2021/05/13 00:36:06;;;;;;;;;;;;;;;5.89;100.00;99699.10;1813640;79;20141;-71
2021/05/13 00:38:32;;;;;;;;;;;;;;;5.86;100.00;99696.70;1813369;79;20141;-70
2021/05/13 00:40:59;;;;;;;;;;;;;;;5.83;100.00;99688.98;1813634;79;20157;-70
2021/05/13 00:43:26;;;;;;;;;;;;;;;5.84;100.00;99689.31;1813679;79;20145;-71
2021/05/13 00:45:52;;;;;;;;;;;;;;;5.84;100.00;99696.02;1813469;79;20153;-69
2021/05/13 00:48:20;;;;;;;;;;;;;;;5.83;100.00;99693.00;1813749;79;20158;-71
2021/05/13 00:50:47;;;;;;;;;;;;;;;5.78;100.00;99700.66;1811429;79;20165;-71
2021/05/13 00:53:14;;;;;;;;;;;;;;;5.74;100.00;99708.62;1808286;79;20174;-70
2021/05/13 00:55:40;;;;;;;;;;;;;;;5.73;100.00;99710.98;1808236;79;20165;-70
2021/05/13 00:58:07;;;;;;;;;;;;;;;5.75;100.00;99715.19;1808255;79;20474;-70
2021/05/13 01:00:42;;;;;;;;;;;;;;;5.77;100.00;99712.36;1812603;79;20162;-69
2021/05/13 01:03:06;;;;;;;;;;;;;;;5.77;100.00;99713.70;1805123;79;20145;-70
2021/05/13 01:05:33;;;;;;;;;;;;;;;5.75;100.00;99710.33;1808178;79;20192;-70
2021/05/13 01:08:01;;;;;;;;;;;;;;;5.73;100.00;99710.47;1808209;79;20505;-71
2021/05/13 01:10:28;;;;;;;;;;;;;;;5.69;100.00;99708.58;1808534;79;20169;-70
2021/05/13 01:15:34;;;;;;;;;;;;;;;5.61;100.00;99712.99;1709231;84;20165;-71
2021/05/13 01:18:08;;;;;;;;;;;;;;;5.56;100.00;99712.11;1677189;84;20175;-69
2021/05/13 01:20:33;;;;;;;;;;;;;;;5.54;100.00;99710.05;1653587;87;20189;-69
2021/05/13 01:22:59;;;;;;;;;;;;;;;5.53;100.00;99720.44;1654396;87;20157;-67
2021/05/13 01:25:26;;;;;;;;;;;;;;;5.53;100.00;99719.61;1656433;87;20196;-67
2021/05/13 01:28:00;;;;;;;;;;;;;;;5.50;100.00;99716.70;1654878;87;20181;-70
2021/05/13 01:30:28;;;;;;;;;;;;;;;5.46;100.00;99712.13;1653838;87;20177;-71
2021/05/13 01:32:59;;;;;;;;;;;;;;;5.46;100.00;99712.63;1572519;91;20168;-71
2021/05/13 01:35:26;;;;;;;;;;;;;;;5.47;100.00;99717.86;1572427;91;20224;-71
2021/05/13 01:38:03;;;;;;;;;;;;;;;5.51;100.00;99709.02;1572379;91;20192;-69
2021/05/13 01:40:32;;;;;;;;;;;;;;;5.55;100.00;99705.05;1572321;91;20537;-70
2021/05/13 01:42:58;;;;;;;;;;;;;;;5.57;100.00;99708.42;1572560;91;20184;-70
2021/05/13 01:45:25;;;;;;;;;;;;;;;5.54;100.00;99718.59;1572500;91;20169;-70
2021/05/13 01:47:51;;;;;;;;;;;;;;;5.49;100.00;99716.38;1572687;91;20209;-71
2021/05/13 01:50:18;;;;;;;;;;;;;;;5.44;100.00;99719.98;1573925;90;20225;-69
2021/05/13 01:52:44;;;;;;;;;;;;;;;5.39;100.00;99712.37;1599774;90;20170;-71
2021/05/13 01:55:12;;;;;;;;;;;;;;;5.31;100.00;99719.80;1599611;90;20202;-68
2021/05/13 01:57:39;;;;;;;;;;;;;;;5.24;100.00;99725.88;1594241;89;20318;-71
2021/05/13 02:00:06;;;;;;;;;;;;;;;5.20;100.00;99725.31;1593427;90;20477;-70
2021/05/13 02:02:34;;;;;;;;;;;;;;;5.19;100.00;99729.48;1593073;90;20174;-70
2021/05/13 02:05:00;;;;;;;;;;;;;;;5.16;100.00;99729.28;1593377;90;20174;-71
2021/05/13 02:07:26;;;;;;;;;;;;;;;5.16;100.00;99735.14;1593402;90;20163;-69
2021/05/13 02:09:55;;;;;;;;;;;;;;;5.18;100.00;99745.23;1593246;90;20166;-71
2021/05/13 02:12:21;;;;;;;;;;;;;;;5.18;100.00;99746.06;1593281;90;20257;-70
2021/05/13 02:14:49;;;;;;;;;;;;;;;5.19;100.00;99745.56;1593220;90;20219;-70
2021/05/13 02:17:16;;;;;;;;;;;;;;;5.22;100.00;99751.48;1595432;90;20176;-68
2021/05/13 02:19:43;;;;;;;;;;;;;;;5.26;100.00;99751.56;1605190;89;20199;-70
2021/05/13 02:22:09;;;;;;;;;;;;;;;5.32;100.00;99748.80;1612283;89;20551;-69
2021/05/13 02:24:35;;;;;;;;;;;;;;;5.38;100.00;99757.59;1633678;85;20158;-69
2021/05/13 02:27:03;;;;;;;;;;;;;;;5.41;100.00;99755.13;1678965;85;20187;-69
2021/05/13 02:29:30;;;;;;;;;;;;;;;5.39;100.00;99757.95;1707439;82;20134;-70
2021/05/13 02:31:56;;;;;;;;;;;;;;;5.39;100.00;99754.43;1745546;82;20166;-69
2021/05/13 02:34:23;;;;;;;;;;;;;;;5.38;100.00;99757.59;1745738;82;20162;-69
2021/05/13 02:36:52;;;;;;;;;;;;;;;5.36;100.00;99764.09;1745818;82;20169;-70
2021/05/13 02:39:18;;;;;;;;;;;;;;;5.33;100.00;99764.74;1745611;82;20182;-69
2021/05/13 02:41:45;;;;;;;;;;;;;;;5.31;100.00;99766.73;1745798;82;20174;-70
2021/05/13 02:44:12;;;;;;;;;;;;;;;5.31;100.00;99767.20;1745747;82;20186;-70
2021/05/13 02:46:38;;;;;;;;;;;;;;;5.30;100.00;99764.19;1745595;82;20478;-70
2021/05/13 02:49:05;;;;;;;;;;;;;;;5.26;100.00;99754.75;1745682;82;20150;-69
2021/05/13 02:51:31;;;;;;;;;;;;;;;5.26;100.00;99752.06;1762551;80;20172;-70
2021/05/13 02:53:58;;;;;;;;;;;;;;;5.28;100.00;99753.59;1781352;80;20180;-71
2021/05/13 02:56:25;;;;;;;;;;;;;;;5.31;100.00;99749.77;1781524;81;20199;-72
2021/05/13 02:58:52;;;;;;;;;;;;;;;5.33;100.00;99752.67;1781386;80;20176;-70
2021/05/13 03:01:24;;;;;;;;;;;;;;;5.36;100.00;99757.39;1781364;81;20172;-74
2021/05/13 03:03:50;;;;;;;;;;;;;;;5.37;100.00;99752.39;1781386;80;20531;-71
2021/05/13 03:06:16;;;;;;;;;;;;;;;5.41;100.00;99771.22;1781446;81;20188;-69
2021/05/13 03:08:43;;;;;;;;;;;;;;;5.46;100.00;99764.92;1781523;81;20184;-70
2021/05/13 03:11:10;;;;;;;;;;;;;;;5.54;100.00;99759.66;1781556;80;20195;-71
2021/05/13 03:13:38;;;;;;;;;;;;;;;5.61;100.00;99756.78;1781489;80;20211;-70
2021/05/13 03:16:05;;;;;;;;;;;;;;;5.68;100.00;99759.70;1781424;81;20159;-70
2021/05/13 03:18:34;;;;;;;;;;;;;;;5.73;100.00;99756.08;1803845;79;20183;-70
2021/05/13 03:23:51;;;;;;;;;;;;;;;5.77;100.00;99744.56;1720421;83;20469;-70
2021/05/13 03:26:09;;;;;;;;;;;;;;;5.81;100.00;99736.59;1610351;88;20515;-69
2021/05/13 03:28:35;;;;;;;;;;;;;;;5.85;100.00;99744.17;1600159;90;20192;-70
2021/05/13 03:31:02;;;;;;;;;;;;;;;5.87;100.00;99744.86;1583072;89;20204;-69
2021/05/13 03:33:29;;;;;;;;;;;;;;;5.88;100.00;99750.59;1600285;90;20359;-70
2021/05/13 03:35:55;;;;;;;;;;;;;;;5.90;100.00;99751.28;1583041;91;20221;-69
2021/05/13 03:38:22;;;;;;;;;;;;;;;5.94;100.00;99758.55;1600280;90;20223;-69
2021/05/13 03:40:48;;;;;;;;;;;;;;;5.97;100.00;99758.28;1583018;91;20486;-69
2021/05/13 03:43:15;;;;;;;;;;;;;;;6.06;100.00;99761.92;1600289;90;20148;-70
2021/05/13 03:45:42;;;;;;;;;;;;;;;6.15;100.00;99755.66;1583120;91;20188;-70
2021/05/13 03:48:09;;;;;;;;;;;;;;;6.26;100.00;99761.31;1600413;90;20176;-69
2021/05/13 03:50:37;;;;;;;;;;;;;;;6.40;100.00;99757.27;1582923;91;20220;-71
2021/05/13 03:53:04;;;;;;;;;;;;;;;6.54;100.00;99754.06;1596139;90;20226;-71
2021/05/13 03:55:31;;;;;;;;;;;;;;;6.70;100.00;99769.51;1596311;89;20166;-70
2021/05/13 03:57:58;;;;;;;;;;;;;;;6.83;100.00;99771.33;1622042;88;20174;-70
2021/05/13 04:00:47;;;;;;;;;;;;;;;6.96;100.00;99774.14;1671953;85;20167;-70
2021/05/13 04:03:08;;;;;;;;;;;;;;;7.05;100.00;99779.92;1625237;88;20185;-71
2021/05/13 04:05:36;;;;;;;;;;;;;;;7.18;100.00;99788.42;1658267;86;20167;-70
2021/05/13 04:08:03;;;;;;;;;;;;;;;7.34;100.00;99803.84;1628199;87;20154;-70
2021/05/13 04:10:30;;;;;;;;;;;;;;;7.47;100.00;99821.42;1664234;85;20210;-71
2021/05/13 04:12:57;;;;;;;;;;;;;;;7.59;100.00;99839.84;1637491;88;20197;-71
2021/05/13 04:15:24;;;;;;;;;;;;;;;7.72;100.00;99844.84;1681031;85;20506;-70
2021/05/13 04:17:51;;;;;;;;;;;;;;;7.80;100.00;99828.73;1633442;86;20518;-71
2021/05/13 04:20:18;;;;;;;;;;;;;;;7.87;100.00;99827.59;1707264;83;20135;-71
2021/05/13 04:22:44;;;;;;;;;;;;;;;7.92;100.00;99830.66;1739328;83;20146;-71
2021/05/13 04:25:12;;;;;;;;;;;;;;;7.95;100.00;99833.05;1739454;83;20138;-70
2021/05/13 04:27:38;;;;;;;;;;;;;;;8.03;100.00;99833.58;1739492;83;20159;-72
2021/05/13 04:30:06;;;;;;;;;;;;;;;8.14;100.00;99832.46;1739499;82;20170;-71
2021/05/13 04:32:32;;;;;;;;;;;;;;;8.27;100.00;99842.78;1739498;83;20155;-71
2021/05/13 04:34:59;;;;;;;;;;;;;;;8.40;100.00;99837.81;1739294;83;20194;-71
2021/05/13 04:37:25;;;;;;;;;;;;;;;8.51;100.00;99832.66;1739432;83;20131;-70
2021/05/13 04:39:52;;;;;;;;;;;;;;;8.63;100.00;99824.62;1739391;83;20471;-70
2021/05/13 04:42:19;;;;;;;;;;;;;;;8.77;100.00;99820.45;1739315;83;20146;-72
2021/05/13 04:44:46;;;;;;;;;;;;;;;8.88;100.00;99814.73;1739429;83;20171;-71
2021/05/13 04:47:24;;;;;;;;;;;;;;;9.01;100.00;99795.39;1739062;83;20490;-71
2021/05/13 04:49:50;;;;;;;;;;;;;;;9.15;100.00;99793.86;1738863;82;20198;-72
2021/05/13 04:52:19;;;;;;;;;;;;;;;9.28;100.00;99787.98;1756293;81;20160;-71
2021/05/13 04:54:50;;;;;;;;;;;;;;;9.45;100.00;99783.41;1767474;81;20183;-71
2021/05/13 04:57:17;;;;;;;;;;;;;;;9.63;100.00;99777.33;1767298;81;20196;-71
2021/05/13 04:59:44;;;;;;;;;;;;;;;9.82;100.00;99765.80;1767265;81;20153;-71
2021/05/13 05:02:11;;;;;;;;;;;;;;;10.03;100.00;99762.01;1767227;81;20148;-69
2021/05/13 05:04:37;;;;;;;;;;;;;;;10.25;100.00;99759.55;1767308;81;20148;-67
2021/05/13 05:07:04;;;;;;;;;;;;;;;10.46;100.00;99757.63;1767563;81;20168;-74
2021/05/13 05:09:31;;;;;;;;;;;;;;;10.63;100.00;99763.80;1767744;81;20160;-73
2021/05/13 05:11:57;;;;;;;;;;;;;;;10.75;100.00;99762.38;1768116;81;20199;-73
2021/05/13 05:14:25;;;;;;;;;;;;;;;10.86;100.00;99756.22;1768053;81;20191;-71
2021/05/13 05:16:52;;;;;;;;;;;;;;;10.99;100.00;99747.81;1765386;81;20140;-74
2021/05/13 05:19:18;;;;;;;;;;;;;;;11.16;100.00;99744.48;1781061;80;20168;-74
2021/05/13 05:21:45;;;;;;;;;;;;;;;11.35;100.00;99755.31;1778011;79;20172;-73
2021/05/13 05:24:11;;;;;;;;;;;;;;;11.46;100.00;99742.36;1766768;81;20449;-73
2021/05/13 05:26:38;;;;;;;;;;;;;;;11.57;100.00;99748.15;1766595;81;20533;-71
2021/05/13 05:29:05;;;;;;;;;;;;;;;11.69;100.00;99748.55;1766698;81;20155;-73
2021/05/13 05:31:31;;;;;;;;;;;;;;;11.79;100.00;99741.48;1783463;80;20473;-72
2021/05/13 05:33:58;;;;;;;;;;;;;;;11.90;100.00;99746.98;1774483;80;20160;-67
2021/05/13 05:36:27;;;;;;;;;;;;;;;12.01;100.00;99746.53;1742334;82;20484;-65
2021/05/13 05:38:54;;;;;;;;;;;;;;;12.20;100.00;99749.68;1707179;83;20176;-65
2021/05/13 05:41:23;;;;;;;;;;;;;;;12.45;100.00;99747.52;1706000;82;20149;-74
2021/05/13 05:43:50;;;;;;;;;;;;;;;12.72;100.00;99741.86;1714344;83;20142;-73
2021/05/13 05:46:17;;;;;;;;;;;;;;;12.86;100.00;99739.61;1708401;83;20207;-75
2021/05/13 05:48:44;;;;;;;;;;;;;;;12.90;100.00;99740.06;1730164;83;20171;-72
2021/05/13 05:51:11;;;;;;;;;;;;;;;12.85;100.00;99739.27;1718046;83;20174;-75
2021/05/13 05:53:38;;;;;;;;;;;;;;;12.98;100.00;99732.30;1718713;82;20151;-75
2021/05/13 05:56:04;;;;;;;;;;;;;;;13.11;100.00;99729.72;1720186;83;20161;-73
2021/05/13 05:58:31;;;;;;;;;;;;;;;13.22;100.00;99735.13;1774388;80;20178;-75
2021/05/13 06:00:58;;;;;;;;;;;;;;;13.34;100.00;99731.41;1785984;79;20154;-70
2021/05/13 06:03:25;;;;;;;;;;;;;;;13.46;100.00;99729.30;1782999;79;20524;-73
2021/05/13 06:05:52;;;;;;;;;;;;;;;13.61;100.00;99730.55;1793368;79;20183;-73
2021/05/13 06:08:19;;;;;;;;;;;;;;;13.56;100.00;99726.75;1781825;79;20174;-71
2021/05/13 06:10:46;;;;;;;;;;;;;;;13.56;100.00;99730.83;1789534;79;20481;-78
2021/05/13 06:13:13;;;;;;;;;;;;;;;13.63;100.00;99735.30;1809076;79;20252;-75
2021/05/13 06:15:40;;;;;;;;;;;;;;;13.90;100.00;99740.03;1782364;81;20220;-77
2021/05/13 06:18:07;;;;;;;;;;;;;;;14.19;100.00;99734.87;1782170;81;20595;-73
2021/05/13 06:20:36;;;;;;;;;;;;;;;14.40;100.00;99737.99;1793920;79;20268;-77
2021/05/13 06:23:03;;;;;;;;;;;;;;;14.56;100.00;99736.79;1781493;81;20164;-76
2021/05/13 06:25:30;;;;;;;;;;;;;;;14.69;100.00;99730.05;1781670;80;20495;-74
2021/05/13 06:27:57;;;;;;;;;;;;;;;14.78;100.00;99736.14;1781258;80;20245;-77
2021/05/13 06:30:24;;;;;;;;;;;;;;;14.95;100.00;99742.87;1744101;82;20170;-76
2021/05/13 06:32:51;;;;;;;;;;;;;;;15.16;100.00;99743.22;1738200;82;20202;-80
2021/05/13 06:35:18;;;;;;;;;;;;;;;15.45;100.00;99734.31;1726739;82;20155;-81
2021/05/13 06:37:45;;;;;;;;;;;;;;;15.78;100.00;99738.92;1782666;81;20148;-78
2021/05/13 06:40:13;;;;;;;;;;;;;;;16.05;100.00;99733.41;1805238;79;20521;-79
2021/05/13 06:42:40;;;;;;;;;;;;;;;16.18;100.00;99722.98;1799184;79;20195;-78
2021/05/13 06:45:13;;;;;;;;;;;;;;;16.07;100.00;99723.95;1782975;79;20173;-75
2021/05/13 06:47:42;;;;;;;;;;;;;;;15.93;100.00;99719.59;1782086;81;20197;-78
2021/05/13 06:50:09;;;;;;;;;;;;;;;15.84;100.00;99726.33;1782566;81;20183;-77
2021/05/13 06:52:39;;;;;;;;;;;;;;;15.89;100.00;99727.89;1782075;80;20183;-77
2021/05/13 06:55:06;;;;;;;;;;;;;;;16.04;100.00;99723.03;1782170;81;20183;-76
2021/05/13 06:57:33;;;;;;;;;;;;;;;16.19;100.00;99723.30;1783244;81;20175;-83
2021/05/13 07:00:00;;;;;;;;;;;;;;;16.31;100.00;99720.21;1782904;80;20513;-76
2021/05/13 07:02:27;;;;;;;;;;;;;;;16.43;100.00;99721.70;1782049;80;20213;-77
2021/05/13 07:04:53;;;;;;;;;;;;;;;16.57;100.00;99730.13;1781954;81;20238;-80
2021/05/13 07:07:20;;;;;;;;;;;;;;;16.53;100.00;99726.72;1782114;80;20267;-82
2021/05/13 07:09:47;;;;;;;;;;;;;;;16.55;100.00;99733.61;1779514;80;20160;-77
2021/05/13 07:12:14;;;;;;;;;;;;;;;16.67;100.00;99730.50;1781752;81;20180;-79
2021/05/13 07:14:41;;;;;;;;;;;;;;;16.77;100.00;99727.31;1781394;81;20144;-80
2021/05/13 07:17:07;;;;;;;;;;;;;;;16.80;100.00;99728.25;1782264;81;20191;-79
2021/05/13 07:19:34;;;;;;;;;;;;;;;16.88;100.00;99744.92;1781517;81;20195;-81
2021/05/13 07:22:01;;;;;;;;;;;;;;;17.09;100.00;99735.55;1782311;80;20178;-78
2021/05/13 07:24:29;;;;;;;;;;;;;;;17.16;100.00;99734.96;1783467;81;20167;-79
2021/05/13 07:26:55;;;;;;;;;;;;;;;16.98;100.00;99744.42;1782984;79;20174;-83
2021/05/13 07:29:22;;;;;;;;;;;;;;;16.92;100.00;99748.05;1784095;81;20171;-80
2021/05/13 07:31:51;;;;;;;;;;;;;;;17.03;100.00;99740.00;1783954;81;20152;-82
2021/05/13 07:34:17;;;;;;;;;;;;;;;17.45;100.00;99743.02;1782898;80;20196;-79
2021/05/13 07:36:44;;;;;;;;;;;;;;;17.98;100.00;99736.23;1782764;81;20183;-77
2021/05/13 07:39:11;;;;;;;;;;;;;;;18.49;100.00;99749.22;1783831;81;20128;-78
2021/05/13 07:41:37;;;;;;;;;;;;;;;18.79;100.00;99736.08;1783730;81;20179;-78
2021/05/13 07:44:05;;;;;;;;;;;;;;;19.00;100.00;99736.13;1783535;81;20160;-78
2021/05/13 07:46:37;;;;;;;;;;;;;;;19.22;100.00;99739.69;1782145;81;20179;-79
2021/05/13 07:49:01;;;;;;;;;;;;;;;19.28;100.00;99738.73;1779678;81;20163;-84
2021/05/13 07:51:27;;;;;;;;;;;;;;;19.10;100.00;99734.99;1783385;81;20159;-77
2021/05/13 07:53:54;;;;;;;;;;;;;;;18.77;100.00;99743.16;1783254;80;20147;-75
2021/05/13 07:56:20;;;;;;;;;;;;;;;18.47;100.00;99735.44;1782275;81;20160;-78
2021/05/13 07:58:48;;;;;;;;;;;;;;;18.34;100.00;99739.19;1781974;81;20491;-80
2021/05/13 08:01:14;;;;;;;;;;;;;;;18.54;100.00;99737.05;1783037;79;20169;-76
2021/05/13 08:03:41;;;;;;;;;;;;;;;18.71;100.00;99733.66;1813794;79;20172;-77
2021/05/13 08:06:07;;;;;;;;;;;;;;;18.89;100.00;99736.91;1769748;81;20158;-76
2021/05/13 08:08:34;;;;;;;;;;;;;;;19.22;100.00;99735.58;1776341;79;20135;-79
2021/05/13 08:11:02;;;;;;;;;;;;;;;19.33;100.00;99732.00;1780956;80;20171;-80
2021/05/13 08:13:30;;;;;;;;;;;;;;;18.99;100.00;99732.24;1782419;81;20158;-81
2021/05/13 08:15:57;;;;;;;;;;;;;;;18.83;100.00;99724.16;1782486;79;20136;-75
2021/05/13 08:18:24;;;;;;;;;;;;;;;19.02;100.00;99731.78;1774785;81;20155;-75
2021/05/13 08:20:52;;;;;;;;;;;;;;;19.38;100.00;99731.31;1769503;81;20148;-77
2021/05/13 08:23:19;;;;;;;;;;;;;;;19.78;100.00;99730.62;1778198;79;20170;-76
2021/05/13 08:25:45;;;;;;;;;;;;;;;20.08;100.00;99723.09;1788306;79;20151;-77
2021/05/13 08:28:12;;;;;;;;;;;;;;;20.32;100.00;99727.15;1785134;79;20350;-79
2021/05/13 08:30:39;;;;;;;;;;;;;;;20.30;100.00;99726.02;1776694;79;20172;-78
2021/05/13 08:33:06;;;;;;;;;;;;;;;20.22;100.00;99720.92;1783057;79;20185;-77
2021/05/13 08:35:33;;;;;;;;;;;;;;;20.19;100.00;99725.52;1794277;79;20153;-80
2021/05/13 08:37:59;;;;;;;;;;;;;;;20.28;100.00;99714.45;1805814;79;20153;-76
2021/05/13 08:40:26;;;;;;;;;;;;;;;20.49;100.00;99714.33;1787095;79;20199;-77
2021/05/13 08:42:52;;;;;;;;;;;;;;;20.75;98.15;99715.38;1785133;79;20189;-75
2021/05/13 08:45:19;;;;;;;;;;;;;;;20.31;98.27;99721.38;1789262;79;20148;-76
2021/05/13 08:47:45;;;;;;;;;;;;;;;20.04;100.00;99721.06;1782102;79;20156;-75
2021/05/13 08:50:17;;;;;;;;;;;;;;;19.97;100.00;99721.73;1772348;79;20208;-80
2021/05/13 08:52:46;;;;;;;;;;;;;;;20.06;89.28;99727.99;1773182;80;20198;-81
2021/05/13 08:55:15;;;;;;;;;;;;;;;20.26;88.30;99721.27;1766290;81;20549;-82
2021/05/13 08:57:42;;;;;;;;;;;;;;;20.26;88.30;99725.39;1759517;81;20179;-79
2021/05/13 09:00:09;;;;;;;;;;;;;;;20.38;98.52;99720.70;1756646;81;20412;-81
2021/05/13 09:02:36;;;;;;;;;;;;;;;20.71;90.81;99721.91;1775396;81;20540;-82
2021/05/13 09:05:04;;;;;;;;;;;;;;;21.03;90.02;99715.89;1775005;80;20187;-79
2021/05/13 09:07:36;;;;;;;;;;;;;;;21.45;85.46;99710.55;1771728;80;20211;-77
2021/05/13 09:10:08;;;;;;;;;;;;;;;21.65;74.74;99716.38;1768319;78;20181;-77
2021/05/13 09:12:37;;;;;;;;;;;;;;;21.65;71.96;99711.43;1767753;80;20208;-76
2021/05/13 09:15:14;;;;;;;;;;;;;;;21.55;69.18;99714.33;1776482;80;20150;-78
2021/05/13 09:17:43;;;;;;;;;;;;;;;21.28;70.78;99718.23;1772295;81;20176;-76
2021/05/13 09:20:34;;;;;;;;;;;;;;;21.06;71.64;99723.65;1774675;80;20200;-81
2021/05/13 09:23:23;;;;;;;;;;;;;;;20.92;75.08;99727.80;1656663;86;20160;-76
2021/05/13 09:26:13;;;;;;;;;;;;;;;20.80;65.92;99730.59;1657132;87;20561;-75
2021/05/13 09:28:41;;;;;;;;;;;;;;;20.80;70.96;99726.47;1638119;87;20209;-78
2021/05/13 09:31:09;;;;;;;;;;;;;;;20.77;75.63;99723.69;1651155;87;20249;-77
2021/05/13 09:33:38;;;;;;;;;;;;;;;20.86;80.81;99719.45;1634294;87;20201;-76
2021/05/13 09:36:25;;;;;;;;;;;;;;;21.22;89.82;99704.95;1651490;87;20169;-79
2021/05/13 09:38:52;;;;;;;;;;;;;;;21.26;90.93;99715.46;1654619;87;20252;-75
2021/05/13 09:41:31;;;;;;;;;;;;;;;21.02;100.00;99712.87;1657554;87;20169;-76
2021/05/13 09:43:58;;;;;;;;;;;;;;;21.26;100.00;99716.84;1656446;87;20206;-76
2021/05/13 09:46:36;;;;;;;;;;;;;;;21.56;97.60;99702.77;1657462;87;20184;-75
2021/05/13 09:49:04;;;;;;;;;;;;;;;21.74;100.00;99707.16;1659136;83;20233;-77
2021/05/13 09:51:35;;;;;;;;;;;;;;;22.07;100.00;99710.38;1682607;85;20178;-75
2021/05/13 09:54:13;;;;;;;;;;;;;;;22.30;82.01;99722.27;1673799;85;20152;-79
2021/05/13 09:56:42;;;;;;;;;;;;;;;22.31;82.50;99719.78;1682315;84;20167;-79
2021/05/13 09:59:27;;;;;;;;;;;;;;;22.56;97.58;99717.91;1670548;85;20151;-82
2021/05/13 10:01:57;;;;;;;;;;;;;;;22.86;90.42;99709.13;1653665;87;20530;-82
2021/05/13 10:04:25;;;;;;;;;;;;;;;22.79;92.18;99711.78;1622907;86;20177;-79
2021/05/13 10:06:55;;;;;;;;;;;;;;;22.75;92.64;99719.22;1652911;87;20176;-77
2021/05/13 10:09:23;;;;;;;;;;;;;;;22.85;89.61;99715.72;1644687;87;20198;-79
2021/05/13 10:11:51;;;;;;;;;;;;;;;22.83;86.92;99717.09;1645133;87;20258;-77
2021/05/13 10:14:20;;;;;;;;;;;;;;;22.60;87.81;99708.02;1647165;86;20225;-76
2021/05/13 10:16:48;;;;;;;;;;;;;;;22.63;94.06;99707.51;1620376;88;20214;-81
2021/05/13 10:19:28;;;;;;;;;;;;;;;22.82;95.45;99707.14;1615183;85;20179;-76
2021/05/13 10:21:55;;;;;;;;;;;;;;;22.77;85.14;99707.08;1687763;85;20263;-76
2021/05/13 10:24:22;;;;;;;;;;;;;;;22.69;85.20;99709.77;1686811;85;20167;-78
2021/05/13 10:26:50;;;;;;;;;;;;;;;22.70;87.97;99710.04;1689795;85;20503;-78
2021/05/13 10:29:23;;;;;;;;;;;;;;;22.91;89.42;99712.46;1686409;85;20175;-75
2021/05/13 10:32:13;;;;;;;;;;;;;;;23.16;82.42;99710.55;1674873;85;20221;-74
2021/05/13 10:34:54;;;;;;;;;;;;;;;23.34;86.51;99709.84;1644809;86;20198;-79
2021/05/13 10:37:34;;;;;;;;;;;;;;;23.36;80.74;99709.88;1660508;85;20229;-74
2021/05/13 10:42:42;;;;;;;;;;;;;;;22.56;83.87;99713.77;1664295;85;20245;-73
2021/05/13 10:45:28;;;;;;;;;;;;;;;22.40;80.53;99719.64;1653974;87;20164;-74
2021/05/13 10:51:03;;;;;;;;;;;;;;;22.41;80.48;99707.52;1601578;89;20220;-74
2021/05/13 10:53:48;;;;;;;;;;;;;;;22.50;80.42;99710.09;1539645;92;20243;-80
2021/05/13 10:56:20;;;;;;;;;;;;;;;22.67;79.96;99705.89;1548544;91;20514;-84
2021/05/13 10:59:09;;;;;;;;;;;;;;;22.91;79.69;99705.57;1554684;92;20199;-83
2021/05/13 11:01:51;;;;;;;;;;;;;;;23.12;86.10;99700.59;1582358;89;20192;-82
2021/05/13 11:04:24;;;;;;;;;;;;;;;23.37;77.13;99693.59;1615892;89;20503;-80
2021/05/13 11:07:00;;;;;;;;;;;;;;;23.47;75.99;99691.47;1586887;89;20156;-81
2021/05/13 11:09:45;;;;;;;;;;;;;;;23.44;76.27;99695.61;1585240;91;20169;-83
2021/05/13 11:12:24;;;;;;;;;;;;;;;23.55;75.81;99701.17;1582177;91;20177;-78
2021/05/13 11:17:50;;;;;;;;;;;;;;;23.47;71.65;99689.53;1572701;89;20529;-76
2021/05/13 11:20:24;;;;;;;;;;;;;;;23.49;77.96;99697.55;1573144;91;20200;-77
2021/05/13 11:22:56;;;;;;;;;;;;;;;23.36;76.12;99688.36;1571520;91;20250;-77
2021/05/13 11:25:28;;;;;;;;;;;;;;;23.19;78.88;99686.55;1571800;91;20249;-79
2021/05/13 11:27:54;;;;;;;;;;;;;;;23.21;80.55;99688.50;1562377;91;20498;-76
2021/05/13 11:30:24;;;;;;;;;;;;;;;23.29;80.18;99686.64;1583589;89;20168;-75
2021/05/13 11:32:51;;;;;;;;;;;;;;;23.41;86.11;99690.61;1587358;89;20172;-76
2021/05/13 11:35:19;;;;;;;;;;;;;;;23.51;84.38;99684.31;1582263;89;20251;-75
2021/05/13 11:37:50;;;;;;;;;;;;;;;23.64;81.60;99685.24;1577145;91;20225;-75
2021/05/13 11:40:23;;;;;;;;;;;;;;;23.84;83.64;99676.27;1567260;91;20205;-76
2021/05/13 11:42:50;;;;;;;;;;;;;;;24.01;71.79;99673.86;1582193;89;20562;-78
2021/05/13 11:45:22;;;;;;;;;;;;;;;24.12;76.89;99676.97;1590093;89;20345;-77
2021/05/13 11:47:49;;;;;;;;;;;;;;;24.28;79.68;99677.05;1586475;90;20205;-77
2021/05/13 11:50:30;;;;;;;;;;;;;;;24.40;68.83;99692.80;1638940;87;20242;-78
2021/05/13 11:53:16;;;;;;;;;;;;;;;24.19;72.84;99683.08;1641367;85;20218;-82
2021/05/13 11:55:44;;;;;;;;;;;;;;;24.13;76.59;99683.31;1793772;79;20214;-78
2021/05/13 11:58:12;;;;;;;;;;;;;;;24.09;75.85;99681.65;1785668;80;20199;-82
2021/05/13 12:00:40;;;;;;;;;;;;;;;24.05;78.16;99684.67;1783486;81;20166;-81
2021/05/13 12:03:16;;;;;;;;;;;;;;;23.95;76.35;99685.44;1782632;81;20212;-79
2021/05/13 12:05:49;;;;;;;;;;;;;;;23.82;74.69;99695.04;1782661;81;20163;-81
2021/05/13 12:08:17;;;;;;;;;;;;;;;23.44;77.49;99691.47;1782512;81;20205;-81
2021/05/13 12:10:44;;;;;;;;;;;;;;;23.24;83.73;99688.53;1783360;81;20138;-84
2021/05/13 12:13:10;;;;;;;;;;;;;;;23.22;87.58;99679.70;1784920;79;20198;-84
2021/05/13 12:15:37;;;;;;;;;;;;;;;23.38;86.45;99681.47;1784669;79;20145;-82
2021/05/13 12:18:04;;;;;;;;;;;;;;;23.55;83.14;99681.33;1791699;79;20199;-80
2021/05/13 12:20:32;;;;;;;;;;;;;;;23.53;81.76;99684.05;1796151;79;20153;-81
2021/05/13 12:23:00;;;;;;;;;;;;;;;23.36;74.61;99692.50;1767932;79;20160;-80
2021/05/13 12:25:27;;;;;;;;;;;;;;;23.20;77.60;99682.72;1782335;79;20155;-79
2021/05/13 12:27:53;;;;;;;;;;;;;;;23.33;77.14;99677.30;1795076;79;20505;-76
2021/05/13 12:30:20;;;;;;;;;;;;;;;23.56;80.35;99674.69;1791623;79;20290;-78
2021/05/13 12:32:47;;;;;;;;;;;;;;;23.52;74.73;99682.41;1782364;81;20138;-76
2021/05/13 12:35:29;;;;;;;;;;;;;;;23.19;77.08;99680.22;1782515;81;20147;-79
2021/05/13 12:38:14;;;;;;;;;;;;;;;22.85;79.65;99677.69;1782653;81;20174;-77
2021/05/13 12:40:41;;;;;;;;;;;;;;;22.65;80.02;99668.13;1782975;81;20203;-77
2021/05/13 12:43:10;;;;;;;;;;;;;;;22.46;78.97;99667.64;1783415;79;20187;-76
2021/05/13 12:45:45;;;;;;;;;;;;;;;22.35;82.04;99657.05;1741167;80;20183;-76
2021/05/13 12:48:23;;;;;;;;;;;;;;;22.33;87.41;99660.62;1703354;84;20162;-78
2021/05/13 12:51:00;;;;;;;;;;;;;;;22.44;85.54;99661.56;1700247;84;20629;-82
2021/05/13 12:53:28;;;;;;;;;;;;;;;22.56;87.67;99661.42;1704891;83;20189;-77
2021/05/13 12:55:55;;;;;;;;;;;;;;;22.56;82.98;99656.73;1653580;86;20168;-81
2021/05/13 12:58:27;;;;;;;;;;;;;;;22.37;81.53;99663.69;1658437;83;20200;-78
2021/05/13 13:01:01;;;;;;;;;;;;;;;22.21;84.72;99671.46;1651795;85;20563;-77
2021/05/13 13:03:31;;;;;;;;;;;;;;;22.02;86.97;99677.27;1673901;85;20215;-74
2021/05/13 13:06:14;;;;;;;;;;;;;;;21.87;87.92;99673.78;1634877;88;20244;-78